RYR088 LPPT-LPMA
Flight info
| Callsign | RYR088 |
|---|---|
| Flight time | 1h 37m |
| Altitude | 31000 |
| Route | ULVOT DCT GALPA DCT RAKUN |
| Aircraft | B38M/M-SDE1FGHILORVWXY/HB1 |
Departure
| Time | 2026-05-07 11:53 |
|---|---|
| Airport | Lisbon Humberto Delgado Airport (LPPT) |
Arrival
| Time | 2026-05-07 13:31 |
|---|---|
| Airport | Cristiano Ronaldo International Airport (LPMA) |
| Time | Latitude | Longitude | Altitude | Speed | Heading |
|---|---|---|---|---|---|
| 2026-05-07 11:21 | 38.76494 | -9.13590 | 350 ft | 0 kts | 168° |
| 2026-05-07 11:43 | 38.76503 | -9.13593 | 359 ft | 3 kts | 166° |
| 2026-05-07 11:43 | 38.76523 | -9.13600 | 359 ft | 3 kts | 157° |
| 2026-05-07 11:43 | 38.76540 | -9.13612 | 357 ft | 3 kts | 142° |
| 2026-05-07 11:44 | 38.76553 | -9.13629 | 358 ft | 3 kts | 110° |
| 2026-05-07 11:44 | 38.76554 | -9.13648 | 355 ft | 2 kts | 77° |
| 2026-05-07 11:44 | 38.76550 | -9.13672 | 357 ft | 3 kts | 78° |
| 2026-05-07 11:44 | 38.76546 | -9.13698 | 357 ft | 3 kts | 78° |
| 2026-05-07 11:45 | 38.76543 | -9.13719 | 359 ft | 1 kts | 78° |
| 2026-05-07 11:45 | 38.76542 | -9.13721 | 359 ft | 0 kts | 78° |
| 2026-05-07 11:49 | 38.76543 | -9.13719 | 359 ft | 1 kts | 78° |
| 2026-05-07 11:49 | 38.76553 | -9.13680 | 358 ft | 9 kts | 57° |
| 2026-05-07 11:49 | 38.76613 | -9.13696 | 353 ft | 12 kts | 289° |
| 2026-05-07 11:50 | 38.76600 | -9.13810 | 356 ft | 14 kts | 258° |
| 2026-05-07 11:50 | 38.76580 | -9.13941 | 352 ft | 16 kts | 258° |
| 2026-05-07 11:50 | 38.76524 | -9.14062 | 349 ft | 17 kts | 229° |
| 2026-05-07 11:50 | 38.76500 | -9.14191 | 350 ft | 13 kts | 287° |
| 2026-05-07 11:51 | 38.76538 | -9.14310 | 338 ft | 16 kts | 292° |
| 2026-05-07 11:51 | 38.76587 | -9.14410 | 338 ft | 9 kts | 339° |
| 2026-05-07 11:51 | 38.76617 | -9.14403 | 335 ft | 0 kts | 22° |
| 2026-05-07 11:52 | 38.76620 | -9.14402 | 335 ft | 1 kts | 21° |
| 2026-05-07 11:52 | 38.76742 | -9.14337 | 346 ft | 55 kts | 22° |
| 2026-05-07 11:52 | 38.77355 | -9.14009 | 365 ft | 133 kts | 22° |
| 2026-05-07 11:53 | 38.78390 | -9.13441 | 516 ft | 184 kts | 21° |
| 2026-05-07 11:53 | 38.79636 | -9.12760 | 1391 ft | 200 kts | 21° |
| 2026-05-07 11:53 | 38.80976 | -9.12002 | 2286 ft | 224 kts | 24° |
| 2026-05-07 11:53 | 38.82439 | -9.11008 | 3154 ft | 247 kts | 26° |
| 2026-05-07 11:54 | 38.83961 | -9.09892 | 4359 ft | 253 kts | 31° |
| 2026-05-07 11:54 | 38.85490 | -9.08692 | 5184 ft | 264 kts | 31° |
| 2026-05-07 11:54 | 38.87006 | -9.07245 | 5866 ft | 277 kts | 51° |
| 2026-05-07 11:54 | 38.87846 | -9.05091 | 6883 ft | 271 kts | 78° |
| 2026-05-07 11:55 | 38.87933 | -9.02648 | 7648 ft | 278 kts | 103° |
| 2026-05-07 11:55 | 38.87172 | -9.00419 | 8563 ft | 275 kts | 129° |
| 2026-05-07 11:55 | 38.85745 | -8.98752 | 9396 ft | 280 kts | 150° |
| 2026-05-07 11:55 | 38.83907 | -8.97952 | 10232 ft | 281 kts | 175° |
| 2026-05-07 11:56 | 38.81957 | -8.98221 | 10796 ft | 292 kts | 200° |
| 2026-05-07 11:56 | 38.80193 | -8.99612 | 11255 ft | 307 kts | 225° |
| 2026-05-07 11:56 | 38.78745 | -9.01726 | 11773 ft | 321 kts | 228° |
| 2026-05-07 11:56 | 38.77224 | -9.03887 | 12410 ft | 329 kts | 228° |
| 2026-05-07 11:57 | 38.75709 | -9.06055 | 13261 ft | 331 kts | 229° |
| 2026-05-07 11:57 | 38.74142 | -9.08301 | 13985 ft | 337 kts | 229° |
| 2026-05-07 11:57 | 38.72582 | -9.10535 | 14690 ft | 340 kts | 230° |
| 2026-05-07 11:57 | 38.71007 | -9.12793 | 15407 ft | 344 kts | 230° |
| 2026-05-07 11:58 | 38.69396 | -9.15100 | 16129 ft | 347 kts | 230° |
| 2026-05-07 11:58 | 38.67762 | -9.17436 | 16840 ft | 351 kts | 230° |
| 2026-05-07 11:58 | 38.66133 | -9.19764 | 17542 ft | 354 kts | 230° |
| 2026-05-07 11:58 | 38.64489 | -9.22111 | 18258 ft | 357 kts | 231° |
| 2026-05-07 11:59 | 38.62824 | -9.24485 | 18857 ft | 360 kts | 231° |
| 2026-05-07 11:59 | 38.61140 | -9.26884 | 19456 ft | 362 kts | 231° |
| 2026-05-07 11:59 | 38.59449 | -9.29293 | 20046 ft | 364 kts | 231° |
| 2026-05-07 11:59 | 38.57741 | -9.31722 | 20615 ft | 367 kts | 231° |
| 2026-05-07 12:00 | 38.56042 | -9.34139 | 21178 ft | 369 kts | 231° |
| 2026-05-07 12:00 | 38.54316 | -9.36592 | 21771 ft | 371 kts | 231° |
| 2026-05-07 12:00 | 38.52600 | -9.39028 | 22311 ft | 374 kts | 231° |
| 2026-05-07 12:00 | 38.50840 | -9.41525 | 22866 ft | 376 kts | 231° |
| 2026-05-07 12:01 | 38.49084 | -9.44016 | 23398 ft | 379 kts | 231° |
| 2026-05-07 12:01 | 38.47315 | -9.46519 | 23853 ft | 381 kts | 231° |
| 2026-05-07 12:01 | 38.45544 | -9.49025 | 24306 ft | 383 kts | 231° |
| 2026-05-07 12:01 | 38.43738 | -9.51582 | 24773 ft | 384 kts | 231° |
| 2026-05-07 12:02 | 38.41952 | -9.54108 | 25205 ft | 386 kts | 231° |
| 2026-05-07 12:02 | 38.40152 | -9.56651 | 25642 ft | 388 kts | 231° |
| 2026-05-07 12:02 | 38.38327 | -9.59227 | 26074 ft | 390 kts | 232° |
| 2026-05-07 12:02 | 38.36495 | -9.61812 | 26494 ft | 392 kts | 232° |
| 2026-05-07 12:03 | 38.34677 | -9.64374 | 26904 ft | 393 kts | 232° |
| 2026-05-07 12:03 | 38.32822 | -9.66987 | 27321 ft | 395 kts | 232° |
| 2026-05-07 12:03 | 38.30979 | -9.69580 | 27725 ft | 397 kts | 232° |
| 2026-05-07 12:03 | 38.29108 | -9.72210 | 28117 ft | 399 kts | 232° |
| 2026-05-07 12:04 | 38.27261 | -9.74804 | 28499 ft | 401 kts | 232° |
| 2026-05-07 12:04 | 38.25376 | -9.77452 | 28911 ft | 401 kts | 232° |
| 2026-05-07 12:04 | 38.23525 | -9.80059 | 29425 ft | 399 kts | 232° |
| 2026-05-07 12:04 | 38.22280 | -9.81814 | 29803 ft | 398 kts | 233° |
| 2026-05-07 12:05 | 38.20432 | -9.84417 | 30282 ft | 396 kts | 233° |
| 2026-05-07 12:05 | 38.18588 | -9.87008 | 30738 ft | 393 kts | 233° |
| 2026-05-07 12:05 | 38.16748 | -9.89595 | 30957 ft | 391 kts | 233° |
| 2026-05-07 12:06 | 38.13104 | -9.94700 | 30959 ft | 388 kts | 233° |
| 2026-05-07 12:06 | 38.09497 | -9.99738 | 30960 ft | 387 kts | 233° |
| 2026-05-07 12:07 | 38.05883 | -10.04775 | 30959 ft | 387 kts | 232° |
| 2026-05-07 12:07 | 38.02242 | -10.09841 | 30962 ft | 386 kts | 232° |
| 2026-05-07 12:08 | 37.98631 | -10.14860 | 30960 ft | 386 kts | 232° |
| 2026-05-07 12:08 | 37.95015 | -10.19876 | 30964 ft | 385 kts | 232° |
| 2026-05-07 12:09 | 37.91398 | -10.24885 | 30960 ft | 385 kts | 232° |
| 2026-05-07 12:09 | 37.87768 | -10.29905 | 30962 ft | 385 kts | 232° |
| 2026-05-07 12:10 | 37.84154 | -10.34894 | 30967 ft | 385 kts | 232° |
| 2026-05-07 12:10 | 37.80549 | -10.39863 | 30968 ft | 384 kts | 232° |
| 2026-05-07 12:11 | 37.76937 | -10.44836 | 30970 ft | 384 kts | 232° |
| 2026-05-07 12:11 | 37.73328 | -10.49796 | 30968 ft | 383 kts | 232° |
| 2026-05-07 12:12 | 37.69722 | -10.54744 | 30975 ft | 383 kts | 232° |
| 2026-05-07 12:12 | 37.66092 | -10.59716 | 30972 ft | 383 kts | 232° |
| 2026-05-07 12:13 | 37.62490 | -10.64644 | 30971 ft | 382 kts | 232° |
| 2026-05-07 12:13 | 37.58877 | -10.69579 | 30980 ft | 382 kts | 232° |
| 2026-05-07 12:14 | 37.55275 | -10.74490 | 30973 ft | 382 kts | 231° |
| 2026-05-07 12:14 | 37.51679 | -10.79388 | 30976 ft | 382 kts | 231° |
| 2026-05-07 12:15 | 37.48075 | -10.84286 | 30979 ft | 381 kts | 231° |
| 2026-05-07 12:15 | 37.44476 | -10.89172 | 30979 ft | 381 kts | 231° |
| 2026-05-07 12:16 | 37.40868 | -10.94062 | 30977 ft | 381 kts | 231° |
| 2026-05-07 12:16 | 37.37243 | -10.98968 | 30979 ft | 381 kts | 231° |
| 2026-05-07 12:17 | 37.33635 | -11.03844 | 30977 ft | 380 kts | 231° |
| 2026-05-07 12:17 | 37.30054 | -11.08675 | 30982 ft | 380 kts | 231° |
| 2026-05-07 12:18 | 37.26435 | -11.13551 | 30985 ft | 380 kts | 231° |
| 2026-05-07 12:18 | 37.22825 | -11.18407 | 30986 ft | 380 kts | 231° |
| 2026-05-07 12:19 | 37.19222 | -11.23246 | 30984 ft | 380 kts | 231° |
| 2026-05-07 12:19 | 37.15610 | -11.28090 | 30986 ft | 380 kts | 231° |
| 2026-05-07 12:20 | 37.12005 | -11.32918 | 30985 ft | 379 kts | 231° |
| 2026-05-07 12:20 | 37.08393 | -11.37748 | 30986 ft | 379 kts | 231° |
| 2026-05-07 12:21 | 37.04789 | -11.42559 | 30984 ft | 379 kts | 231° |
| 2026-05-07 12:21 | 37.01193 | -11.47353 | 30986 ft | 379 kts | 231° |
| 2026-05-07 12:22 | 36.97594 | -11.52144 | 30985 ft | 379 kts | 230° |
| 2026-05-07 12:22 | 36.93984 | -11.56942 | 30988 ft | 378 kts | 230° |
| 2026-05-07 12:23 | 36.90374 | -11.61733 | 30990 ft | 378 kts | 230° |
| 2026-05-07 12:23 | 36.86767 | -11.66513 | 30991 ft | 378 kts | 230° |
| 2026-05-07 12:24 | 36.83159 | -11.71288 | 30989 ft | 378 kts | 230° |
| 2026-05-07 12:24 | 36.79572 | -11.76029 | 30989 ft | 377 kts | 230° |
| 2026-05-07 12:25 | 36.75966 | -11.80785 | 30989 ft | 377 kts | 230° |
| 2026-05-07 12:25 | 36.72360 | -11.85537 | 31003 ft | 377 kts | 230° |
| 2026-05-07 12:26 | 36.68747 | -11.90290 | 30991 ft | 377 kts | 230° |
| 2026-05-07 12:26 | 36.65141 | -11.95027 | 30995 ft | 377 kts | 230° |
| 2026-05-07 12:27 | 36.61537 | -11.99754 | 30990 ft | 376 kts | 230° |
| 2026-05-07 12:27 | 36.57931 | -12.04478 | 30993 ft | 376 kts | 230° |
| 2026-05-07 12:28 | 36.54325 | -12.09194 | 30993 ft | 376 kts | 230° |
| 2026-05-07 12:28 | 36.50739 | -12.13877 | 30993 ft | 376 kts | 230° |
| 2026-05-07 12:29 | 36.47125 | -12.18591 | 31000 ft | 376 kts | 230° |
| 2026-05-07 12:29 | 36.43513 | -12.23294 | 30994 ft | 375 kts | 230° |
| 2026-05-07 12:30 | 36.39932 | -12.27951 | 31000 ft | 375 kts | 230° |
| 2026-05-07 12:30 | 36.36330 | -12.32628 | 31000 ft | 375 kts | 230° |
| 2026-05-07 12:31 | 36.32728 | -12.37299 | 31005 ft | 374 kts | 229° |
| 2026-05-07 12:31 | 36.29127 | -12.41963 | 31000 ft | 374 kts | 229° |
| 2026-05-07 12:32 | 36.25526 | -12.46618 | 31007 ft | 374 kts | 229° |
| 2026-05-07 12:32 | 36.21924 | -12.51268 | 31005 ft | 374 kts | 229° |
| 2026-05-07 12:33 | 36.16535 | -12.58214 | 31007 ft | 374 kts | 229° |
| 2026-05-07 12:33 | 36.12932 | -12.62849 | 31004 ft | 374 kts | 229° |
| 2026-05-07 12:34 | 36.09329 | -12.67480 | 31008 ft | 373 kts | 229° |
| 2026-05-07 12:34 | 36.05721 | -12.72109 | 31002 ft | 373 kts | 229° |
| 2026-05-07 12:35 | 36.02117 | -12.76726 | 31005 ft | 373 kts | 229° |
| 2026-05-07 12:35 | 35.98512 | -12.81338 | 31005 ft | 373 kts | 229° |
| 2026-05-07 12:36 | 35.94903 | -12.85949 | 31007 ft | 373 kts | 229° |
| 2026-05-07 12:36 | 35.91295 | -12.90552 | 31008 ft | 373 kts | 228° |
| 2026-05-07 12:37 | 35.87686 | -12.95150 | 31005 ft | 373 kts | 228° |
| 2026-05-07 12:37 | 35.84099 | -12.99714 | 31009 ft | 373 kts | 228° |
| 2026-05-07 12:38 | 35.80488 | -13.04302 | 31007 ft | 373 kts | 228° |
| 2026-05-07 12:38 | 35.76872 | -13.08889 | 31008 ft | 372 kts | 228° |
| 2026-05-07 12:39 | 35.73260 | -13.13465 | 31009 ft | 372 kts | 228° |
| 2026-05-07 12:39 | 35.69647 | -13.18035 | 31010 ft | 372 kts | 228° |
| 2026-05-07 12:40 | 35.66056 | -13.22573 | 31008 ft | 372 kts | 228° |
| 2026-05-07 12:40 | 35.62448 | -13.27125 | 31012 ft | 372 kts | 228° |
| 2026-05-07 12:41 | 35.58833 | -13.31680 | 31011 ft | 372 kts | 228° |
| 2026-05-07 12:41 | 35.55223 | -13.36222 | 31010 ft | 372 kts | 228° |
| 2026-05-07 12:42 | 35.51607 | -13.40766 | 31012 ft | 372 kts | 228° |
| 2026-05-07 12:42 | 35.47995 | -13.45298 | 31013 ft | 371 kts | 228° |
| 2026-05-07 12:43 | 35.44384 | -13.49823 | 31013 ft | 371 kts | 227° |
| 2026-05-07 12:43 | 35.40797 | -13.54312 | 31012 ft | 371 kts | 227° |
| 2026-05-07 12:44 | 35.37185 | -13.58824 | 31013 ft | 370 kts | 227° |
| 2026-05-07 12:44 | 35.33578 | -13.63326 | 31013 ft | 370 kts | 227° |
| 2026-05-07 12:45 | 35.29963 | -13.67832 | 31013 ft | 370 kts | 227° |
| 2026-05-07 12:45 | 35.26352 | -13.72326 | 31012 ft | 370 kts | 227° |
| 2026-05-07 12:46 | 35.22741 | -13.76814 | 31015 ft | 369 kts | 227° |
| 2026-05-07 12:46 | 35.19160 | -13.81258 | 31014 ft | 369 kts | 227° |
| 2026-05-07 12:47 | 35.15550 | -13.85734 | 31015 ft | 369 kts | 227° |
| 2026-05-07 12:47 | 35.11955 | -13.90185 | 31015 ft | 369 kts | 227° |
| 2026-05-07 12:48 | 35.08343 | -13.94649 | 31014 ft | 368 kts | 227° |
| 2026-05-07 12:48 | 35.04757 | -13.99077 | 31015 ft | 368 kts | 227° |
| 2026-05-07 12:49 | 35.01158 | -14.03515 | 31017 ft | 367 kts | 227° |
| 2026-05-07 12:49 | 34.97557 | -14.07948 | 31018 ft | 367 kts | 227° |
| 2026-05-07 12:50 | 34.93978 | -14.12350 | 31014 ft | 367 kts | 227° |
| 2026-05-07 12:50 | 34.90986 | -14.16025 | 31017 ft | 366 kts | 227° |
| 2026-05-07 12:51 | 34.87406 | -14.20416 | 31020 ft | 366 kts | 227° |
| 2026-05-07 12:51 | 34.83797 | -14.24837 | 31021 ft | 365 kts | 227° |
| 2026-05-07 12:52 | 34.80215 | -14.29220 | 31020 ft | 365 kts | 227° |
| 2026-05-07 12:52 | 34.76647 | -14.33581 | 31021 ft | 364 kts | 227° |
| 2026-05-07 12:53 | 34.73077 | -14.37937 | 31021 ft | 364 kts | 227° |
| 2026-05-07 12:53 | 34.69486 | -14.42313 | 31021 ft | 364 kts | 227° |
| 2026-05-07 12:54 | 34.65904 | -14.46673 | 31026 ft | 363 kts | 227° |
| 2026-05-07 12:54 | 34.62345 | -14.51000 | 31025 ft | 363 kts | 227° |
| 2026-05-07 12:55 | 34.58785 | -14.55321 | 31023 ft | 362 kts | 227° |
| 2026-05-07 12:55 | 34.55214 | -14.59651 | 31029 ft | 362 kts | 227° |
| 2026-05-07 12:56 | 34.51641 | -14.63978 | 31029 ft | 362 kts | 227° |
| 2026-05-07 12:56 | 34.48090 | -14.68272 | 31031 ft | 362 kts | 227° |
| 2026-05-07 12:57 | 34.44529 | -14.72573 | 31022 ft | 362 kts | 227° |
| 2026-05-07 12:57 | 34.40951 | -14.76889 | 31025 ft | 361 kts | 227° |
| 2026-05-07 12:58 | 34.37408 | -14.81158 | 31030 ft | 361 kts | 226° |
| 2026-05-07 12:58 | 34.33833 | -14.85459 | 31021 ft | 361 kts | 226° |
| 2026-05-07 12:59 | 34.30281 | -14.89727 | 31029 ft | 361 kts | 226° |
| 2026-05-07 12:59 | 34.26709 | -14.94015 | 31023 ft | 360 kts | 226° |
| 2026-05-07 13:00 | 34.23152 | -14.98278 | 31025 ft | 360 kts | 226° |
| 2026-05-07 13:00 | 34.19591 | -15.02541 | 31028 ft | 359 kts | 226° |
| 2026-05-07 13:01 | 34.16035 | -15.06793 | 31031 ft | 360 kts | 226° |
| 2026-05-07 13:01 | 34.12480 | -15.11038 | 31030 ft | 360 kts | 226° |
| 2026-05-07 13:02 | 34.08923 | -15.15281 | 31025 ft | 360 kts | 226° |
| 2026-05-07 13:02 | 34.05358 | -15.19527 | 31026 ft | 360 kts | 226° |
| 2026-05-07 13:03 | 34.01798 | -15.23762 | 31026 ft | 360 kts | 226° |
| 2026-05-07 13:03 | 33.98235 | -15.27995 | 31036 ft | 360 kts | 226° |
| 2026-05-07 13:04 | 33.96473 | -15.30089 | 30925 ft | 347 kts | 226° |
| 2026-05-07 13:04 | 33.94770 | -15.32109 | 30515 ft | 343 kts | 226° |
| 2026-05-07 13:04 | 33.93063 | -15.34134 | 30004 ft | 342 kts | 226° |
| 2026-05-07 13:04 | 33.91379 | -15.36129 | 29514 ft | 338 kts | 226° |
| 2026-05-07 13:05 | 33.89720 | -15.38094 | 29079 ft | 334 kts | 226° |
| 2026-05-07 13:05 | 33.88075 | -15.40042 | 28662 ft | 329 kts | 226° |
| 2026-05-07 13:05 | 33.86448 | -15.41968 | 28265 ft | 324 kts | 226° |
| 2026-05-07 13:05 | 33.84840 | -15.43869 | 27871 ft | 319 kts | 226° |
| 2026-05-07 13:06 | 33.83270 | -15.45725 | 27475 ft | 315 kts | 226° |
| 2026-05-07 13:06 | 33.81716 | -15.47560 | 27105 ft | 311 kts | 226° |
| 2026-05-07 13:06 | 33.80187 | -15.49365 | 26746 ft | 307 kts | 226° |
| 2026-05-07 13:06 | 33.78674 | -15.51150 | 26382 ft | 306 kts | 226° |
| 2026-05-07 13:07 | 33.77125 | -15.52975 | 26011 ft | 310 kts | 226° |
| 2026-05-07 13:07 | 33.75584 | -15.54791 | 25651 ft | 311 kts | 226° |
| 2026-05-07 13:07 | 33.74054 | -15.56593 | 25298 ft | 310 kts | 226° |
| 2026-05-07 13:07 | 33.72512 | -15.58408 | 24938 ft | 309 kts | 226° |
| 2026-05-07 13:08 | 33.70968 | -15.60223 | 24577 ft | 308 kts | 226° |
| 2026-05-07 13:08 | 33.69450 | -15.62008 | 24223 ft | 307 kts | 226° |
| 2026-05-07 13:08 | 33.67919 | -15.63808 | 23864 ft | 306 kts | 226° |
| 2026-05-07 13:08 | 33.66410 | -15.65581 | 23491 ft | 306 kts | 226° |
| 2026-05-07 13:09 | 33.64887 | -15.67369 | 23079 ft | 304 kts | 226° |
| 2026-05-07 13:09 | 33.63377 | -15.69139 | 22702 ft | 303 kts | 226° |
| 2026-05-07 13:09 | 33.61883 | -15.70891 | 22336 ft | 300 kts | 226° |
| 2026-05-07 13:09 | 33.60374 | -15.72660 | 21989 ft | 298 kts | 226° |
| 2026-05-07 13:10 | 33.58904 | -15.74383 | 21645 ft | 296 kts | 226° |
| 2026-05-07 13:10 | 33.57440 | -15.76096 | 21302 ft | 294 kts | 227° |
| 2026-05-07 13:10 | 33.55969 | -15.77818 | 20949 ft | 292 kts | 227° |
| 2026-05-07 13:10 | 33.54518 | -15.79524 | 20535 ft | 293 kts | 227° |
| 2026-05-07 13:11 | 33.53076 | -15.81217 | 20213 ft | 290 kts | 227° |
| 2026-05-07 13:11 | 33.51635 | -15.82908 | 19885 ft | 288 kts | 227° |
| 2026-05-07 13:11 | 33.50214 | -15.84574 | 19560 ft | 286 kts | 227° |
| 2026-05-07 13:11 | 33.48796 | -15.86237 | 19228 ft | 285 kts | 227° |
| 2026-05-07 13:12 | 33.47387 | -15.87887 | 18895 ft | 283 kts | 227° |
| 2026-05-07 13:12 | 33.45977 | -15.89539 | 18569 ft | 281 kts | 227° |
| 2026-05-07 13:12 | 33.44583 | -15.91170 | 18228 ft | 279 kts | 227° |
| 2026-05-07 13:12 | 33.43205 | -15.92782 | 17861 ft | 277 kts | 227° |
| 2026-05-07 13:13 | 33.41833 | -15.94386 | 17524 ft | 275 kts | 227° |
| 2026-05-07 13:13 | 33.40477 | -15.95971 | 17193 ft | 273 kts | 227° |
| 2026-05-07 13:13 | 33.39119 | -15.97559 | 16870 ft | 272 kts | 227° |
| 2026-05-07 13:13 | 33.37762 | -15.99142 | 16545 ft | 271 kts | 227° |
| 2026-05-07 13:14 | 33.36418 | -16.00711 | 16226 ft | 270 kts | 227° |
| 2026-05-07 13:14 | 33.35088 | -16.02263 | 15913 ft | 269 kts | 227° |
| 2026-05-07 13:14 | 33.33739 | -16.03836 | 15589 ft | 268 kts | 227° |
| 2026-05-07 13:14 | 33.32409 | -16.05387 | 15408 ft | 263 kts | 227° |
| 2026-05-07 13:15 | 33.31106 | -16.06905 | 15273 ft | 265 kts | 226° |
| 2026-05-07 13:15 | 33.29782 | -16.08447 | 15145 ft | 265 kts | 226° |
| 2026-05-07 13:15 | 33.28465 | -16.09981 | 15015 ft | 265 kts | 226° |
| 2026-05-07 13:15 | 33.27135 | -16.11528 | 14862 ft | 265 kts | 226° |
| 2026-05-07 13:16 | 33.25820 | -16.13058 | 14596 ft | 265 kts | 226° |
| 2026-05-07 13:16 | 33.24506 | -16.14585 | 14273 ft | 265 kts | 226° |
| 2026-05-07 13:16 | 33.23186 | -16.16119 | 13925 ft | 266 kts | 226° |
| 2026-05-07 13:16 | 33.21860 | -16.17658 | 13518 ft | 265 kts | 226° |
| 2026-05-07 13:17 | 33.20548 | -16.19183 | 13126 ft | 263 kts | 226° |
| 2026-05-07 13:17 | 33.19242 | -16.20699 | 12754 ft | 260 kts | 226° |
| 2026-05-07 13:17 | 33.17949 | -16.22199 | 12398 ft | 258 kts | 226° |
| 2026-05-07 13:17 | 33.16656 | -16.23699 | 12041 ft | 261 kts | 226° |
| 2026-05-07 13:18 | 33.15332 | -16.25233 | 11678 ft | 265 kts | 226° |
| 2026-05-07 13:18 | 33.14013 | -16.26761 | 11321 ft | 267 kts | 226° |
| 2026-05-07 13:18 | 33.12669 | -16.28318 | 10958 ft | 268 kts | 226° |
| 2026-05-07 13:18 | 33.11335 | -16.29861 | 10605 ft | 269 kts | 226° |
| 2026-05-07 13:19 | 33.09992 | -16.31415 | 10245 ft | 269 kts | 227° |
| 2026-05-07 13:19 | 33.08657 | -16.32958 | 10020 ft | 265 kts | 227° |
| 2026-05-07 13:19 | 33.07335 | -16.34487 | 9630 ft | 267 kts | 226° |
| 2026-05-07 13:19 | 33.06004 | -16.36024 | 9240 ft | 266 kts | 227° |
| 2026-05-07 13:20 | 33.04682 | -16.37551 | 8885 ft | 264 kts | 227° |
| 2026-05-07 13:20 | 33.03377 | -16.39060 | 8540 ft | 262 kts | 227° |
| 2026-05-07 13:20 | 33.02062 | -16.40577 | 8184 ft | 260 kts | 227° |
| 2026-05-07 13:20 | 33.00770 | -16.42066 | 7848 ft | 258 kts | 227° |
| 2026-05-07 13:21 | 32.99473 | -16.43560 | 7511 ft | 257 kts | 227° |
| 2026-05-07 13:21 | 32.98208 | -16.45019 | 7183 ft | 255 kts | 227° |
| 2026-05-07 13:21 | 32.96938 | -16.46483 | 6850 ft | 253 kts | 227° |
| 2026-05-07 13:21 | 32.95666 | -16.47947 | 6528 ft | 252 kts | 227° |
| 2026-05-07 13:22 | 32.94419 | -16.49382 | 6189 ft | 253 kts | 227° |
| 2026-05-07 13:22 | 32.93143 | -16.50849 | 5836 ft | 256 kts | 226° |
| 2026-05-07 13:22 | 32.91811 | -16.52286 | 5458 ft | 258 kts | 224° |
| 2026-05-07 13:22 | 32.90481 | -16.53703 | 5115 ft | 256 kts | 224° |
| 2026-05-07 13:23 | 32.89147 | -16.55130 | 4786 ft | 254 kts | 224° |
| 2026-05-07 13:23 | 32.87854 | -16.56514 | 4458 ft | 252 kts | 224° |
| 2026-05-07 13:23 | 32.86558 | -16.57904 | 4213 ft | 246 kts | 223° |
| 2026-05-07 13:23 | 32.85298 | -16.59218 | 4043 ft | 238 kts | 219° |
| 2026-05-07 13:24 | 32.83959 | -16.60336 | 3873 ft | 230 kts | 216° |
| 2026-05-07 13:24 | 32.82668 | -16.61402 | 3723 ft | 221 kts | 216° |
| 2026-05-07 13:24 | 32.81437 | -16.62427 | 3580 ft | 212 kts | 216° |
| 2026-05-07 13:24 | 32.80255 | -16.63419 | 3434 ft | 210 kts | 216° |
| 2026-05-07 13:25 | 32.79034 | -16.64424 | 3234 ft | 214 kts | 216° |
| 2026-05-07 13:25 | 32.77802 | -16.65437 | 3034 ft | 215 kts | 216° |
| 2026-05-07 13:25 | 32.76583 | -16.66443 | 2840 ft | 215 kts | 216° |
| 2026-05-07 13:25 | 32.75368 | -16.67445 | 2663 ft | 211 kts | 216° |
| 2026-05-07 13:26 | 32.74173 | -16.68429 | 2423 ft | 205 kts | 216° |
| 2026-05-07 13:26 | 32.73009 | -16.69383 | 2092 ft | 202 kts | 215° |
| 2026-05-07 13:26 | 32.72244 | -16.70018 | 1878 ft | 196 kts | 215° |
| 2026-05-07 13:26 | 32.71175 | -16.70913 | 1622 ft | 176 kts | 215° |
| 2026-05-07 13:27 | 32.70244 | -16.71694 | 1401 ft | 155 kts | 215° |
| 2026-05-07 13:27 | 32.69382 | -16.72413 | 1194 ft | 149 kts | 215° |
| 2026-05-07 13:27 | 32.68536 | -16.73110 | 1040 ft | 150 kts | 215° |
| 2026-05-07 13:27 | 32.67667 | -16.73815 | 991 ft | 151 kts | 215° |
| 2026-05-07 13:28 | 32.66798 | -16.74517 | 996 ft | 151 kts | 215° |
| 2026-05-07 13:28 | 32.65926 | -16.75223 | 998 ft | 151 kts | 215° |
| 2026-05-07 13:28 | 32.65058 | -16.75933 | 990 ft | 151 kts | 218° |
| 2026-05-07 13:28 | 32.64373 | -16.76875 | 938 ft | 150 kts | 244° |
| 2026-05-07 13:29 | 32.64136 | -16.78064 | 908 ft | 149 kts | 272° |
| 2026-05-07 13:29 | 32.64380 | -16.79236 | 816 ft | 147 kts | 298° |
| 2026-05-07 13:29 | 32.65064 | -16.80110 | 813 ft | 147 kts | 328° |
| 2026-05-07 13:29 | 32.66067 | -16.80411 | 786 ft | 158 kts | 358° |
| 2026-05-07 13:30 | 32.67129 | -16.80245 | 671 ft | 148 kts | 19° |
| 2026-05-07 13:30 | 32.67988 | -16.79534 | 455 ft | 160 kts | 40° |
| 2026-05-07 13:30 | 32.68767 | -16.78639 | 247 ft | 151 kts | 43° |
| 2026-05-07 13:30 | 32.69452 | -16.77836 | 169 ft | 107 kts | 45° |
| 2026-05-07 13:31 | 32.69800 | -16.77432 | 178 ft | 36 kts | 43° |
| 2026-05-07 13:31 | 32.69948 | -16.77262 | 182 ft | 17 kts | 48° |
| 2026-05-07 13:31 | 32.69931 | -16.77178 | 180 ft | 10 kts | 175° |
| 2026-05-07 13:31 | 32.69850 | -16.77182 | 178 ft | 14 kts | 196° |
| 2026-05-07 13:32 | 32.69760 | -16.77273 | 172 ft | 20 kts | 226° |
| 2026-05-07 13:32 | 32.69653 | -16.77406 | 174 ft | 21 kts | 226° |
| 2026-05-07 13:32 | 32.69551 | -16.77533 | 176 ft | 22 kts | 226° |
| 2026-05-07 13:32 | 32.69441 | -16.77668 | 173 ft | 24 kts | 226° |
| 2026-05-07 13:33 | 32.69369 | -16.77756 | 171 ft | 6 kts | 225° |
| 2026-05-07 13:33 | 32.69342 | -16.77759 | 173 ft | 2 kts | 147° |
| 2026-05-07 13:33 | 32.69319 | -16.77737 | 175 ft | 4 kts | 138° |
| 2026-05-07 13:33 | 32.69311 | -16.77729 | 176 ft | 2 kts | 138° |
| 2026-05-07 13:34 | 32.69307 | -16.77724 | 176 ft | 0 kts | 139° |